createdAt,value
2024-01-09T00:01:45.843Z,32.35
2024-01-09T00:04:12.871Z,31.42
2024-01-09T00:06:40.238Z,29.83
2024-01-09T00:09:07.369Z,26.55
2024-01-09T00:11:34.478Z,32.92
2024-01-09T00:14:01.570Z,36.75
2024-01-09T00:16:28.660Z,33.42
2024-01-09T00:18:55.834Z,31.30
2024-01-09T00:21:23.907Z,35.50
2024-01-09T00:23:50.959Z,33.38
2024-01-09T00:26:18.752Z,33.55
2024-01-09T00:28:45.778Z,31.30
2024-01-09T00:31:13.590Z,33.55
2024-01-09T00:33:40.637Z,35.42
2024-01-09T00:36:07.949Z,31.75
2024-01-09T00:38:36.581Z,30.38
2024-01-09T00:41:03.691Z,37.75
2024-01-09T00:43:30.807Z,35.58
2024-01-09T00:45:59.023Z,31.80
2024-01-09T00:48:26.152Z,35.05
2024-01-09T00:50:53.467Z,32.33
2024-01-09T00:53:21.749Z,32.80
2024-01-09T00:55:48.795Z,36.05
2024-01-09T00:58:15.837Z,33.25
2024-01-09T01:00:42.902Z,33.45
2024-01-09T01:03:09.881Z,32.88
2024-01-09T01:05:37.019Z,36.97
2024-01-09T01:08:04.119Z,37.75
2024-01-09T01:10:31.164Z,37.47
2024-01-09T01:12:58.121Z,32.17
2024-01-09T01:15:26.556Z,35.33
2024-01-09T01:17:53.915Z,36.67
2024-01-09T01:20:21.042Z,34.22
2024-01-09T01:22:48.264Z,32.72
2024-01-09T01:25:15.260Z,33.13
2024-01-09T01:27:42.262Z,32.83
2024-01-09T01:30:09.476Z,29.48
2024-01-09T01:32:36.596Z,31.42
2024-01-09T01:35:03.803Z,32.70
2024-01-09T01:37:30.811Z,31.45
2024-01-09T01:39:57.884Z,33.72
2024-01-09T01:42:24.865Z,33.00
2024-01-09T01:44:52.011Z,34.05
2024-01-09T01:47:19.892Z,33.28
2024-01-09T01:49:47.182Z,34.72
2024-01-09T01:52:14.830Z,27.13
2024-01-09T01:54:43.215Z,25.42
2024-01-09T01:57:10.713Z,31.27
2024-01-09T01:59:40.429Z,30.58
2024-01-09T02:02:07.678Z,29.83
2024-01-09T02:04:35.589Z,30.42
2024-01-09T02:07:02.705Z,29.38
2024-01-09T02:09:29.954Z,27.33
2024-01-09T02:11:57.191Z,29.98
2024-01-09T02:14:24.345Z,32.90
2024-01-09T02:16:51.421Z,31.65
2024-01-09T02:19:26.850Z,25.70
2024-01-09T02:21:54.206Z,29.65
2024-01-09T02:24:21.340Z,27.30
2024-01-09T02:27:00.143Z,29.38
2024-01-09T02:29:33.619Z,30.27
2024-01-09T02:32:01.443Z,28.48
2024-01-09T02:34:29.535Z,33.20
2024-01-09T02:36:56.787Z,27.50
2024-01-09T02:39:23.918Z,30.42
2024-01-09T02:41:52.110Z,29.17
2024-01-09T02:44:19.768Z,28.60
2024-01-09T02:46:46.839Z,29.23
2024-01-09T02:49:14.047Z,30.35
2024-01-09T02:51:41.132Z,32.42
2024-01-09T02:54:08.168Z,27.13
2024-01-09T02:56:38.282Z,27.63
2024-01-09T02:59:05.429Z,33.92
2024-01-09T03:01:32.764Z,29.52
2024-01-09T03:03:59.837Z,31.27
2024-01-09T03:06:27.044Z,29.58
2024-01-09T03:08:54.225Z,29.92
2024-01-09T03:11:22.342Z,29.77
2024-01-09T03:13:49.398Z,30.95
2024-01-09T03:16:16.456Z,28.10
2024-01-09T03:18:44.293Z,30.48
2024-01-09T03:21:11.820Z,29.52
2024-01-09T03:23:38.938Z,28.95
2024-01-09T03:26:06.192Z,28.10
2024-01-09T03:28:33.705Z,30.52
2024-01-09T03:31:00.719Z,30.17
2024-01-09T03:33:27.901Z,31.30
2024-01-09T03:35:55.105Z,34.42
2024-01-09T03:38:22.295Z,27.98
2024-01-09T03:40:49.363Z,32.03
2024-01-09T03:43:16.394Z,28.20
2024-01-09T03:45:43.433Z,30.15
2024-01-09T03:48:10.535Z,33.70
2024-01-09T03:50:37.569Z,28.52
2024-01-09T03:53:05.755Z,30.55
2024-01-09T03:55:32.744Z,32.17
2024-01-09T03:57:59.800Z,28.58
2024-01-09T04:00:26.855Z,27.25
2024-01-09T04:02:53.930Z,24.30
2024-01-09T04:05:21.175Z,28.15
2024-01-09T04:07:48.380Z,30.63
2024-01-09T04:10:15.569Z,29.60
2024-01-09T04:12:42.586Z,25.67
2024-01-09T04:15:09.949Z,28.90
2024-01-09T04:17:37.084Z,28.85
2024-01-09T04:20:05.775Z,28.25
2024-01-09T04:22:32.871Z,30.60
2024-01-09T04:24:59.951Z,34.25
2024-01-09T04:27:27.251Z,28.17
2024-01-09T04:29:54.288Z,28.98
2024-01-09T04:32:21.419Z,29.33
2024-01-09T04:34:48.548Z,27.17
2024-01-09T04:37:15.675Z,26.52
2024-01-09T04:39:42.711Z,28.35
2024-01-09T04:42:09.714Z,33.38
2024-01-09T04:44:36.746Z,26.27
2024-01-09T04:47:03.938Z,27.73
2024-01-09T04:49:31.544Z,26.17
2024-01-09T04:51:58.589Z,30.50
2024-01-09T04:54:25.550Z,27.35
2024-01-09T04:56:54.657Z,28.92
2024-01-09T04:59:22.905Z,25.17
2024-01-09T05:01:50.576Z,27.98
2024-01-09T05:04:17.611Z,22.75
2024-01-09T05:06:44.825Z,25.58
2024-01-09T05:09:12.421Z,29.02
2024-01-09T05:11:39.436Z,25.52
2024-01-09T05:14:06.537Z,25.55
2024-01-09T05:16:33.504Z,24.50
2024-01-09T05:19:00.700Z,26.20
2024-01-09T05:21:27.996Z,22.80
2024-01-09T05:23:55.162Z,28.80
2024-01-09T05:26:22.220Z,25.85
2024-01-09T05:28:50.511Z,28.40
2024-01-09T05:31:17.448Z,24.02
2024-01-09T05:33:44.742Z,27.60
2024-01-09T05:36:12.054Z,26.52
2024-01-09T05:38:39.149Z,25.48
2024-01-09T05:41:07.169Z,25.88
2024-01-09T05:43:34.285Z,29.77
2024-01-09T05:46:01.409Z,26.73
2024-01-09T05:48:28.692Z,26.95
2024-01-09T05:50:55.886Z,26.58
2024-01-09T05:53:22.962Z,27.52
2024-01-09T05:55:49.945Z,28.42
2024-01-09T05:58:17.046Z,29.48
2024-01-09T06:00:44.215Z,32.30
2024-01-09T06:03:11.464Z,30.25
2024-01-09T06:05:38.740Z,31.38
2024-01-09T06:08:06.120Z,30.20
2024-01-09T06:10:33.180Z,29.80
2024-01-09T06:13:00.258Z,32.10
2024-01-09T06:15:27.271Z,30.45
2024-01-09T06:17:55.573Z,30.42
2024-01-09T06:20:23.993Z,29.55
2024-01-09T06:22:51.022Z,27.25
2024-01-09T06:25:17.962Z,37.38
2024-01-09T06:27:45.111Z,31.95
2024-01-09T06:30:12.476Z,59.38
2024-01-09T06:32:39.599Z,32.53
2024-01-09T06:35:06.872Z,44.70
2024-01-09T06:37:34.604Z,30.48
2024-01-09T06:40:01.565Z,31.83
2024-01-09T06:42:30.625Z,29.10
2024-01-09T06:44:57.686Z,24.42
2024-01-09T06:47:24.903Z,25.00
2024-01-09T06:49:54.725Z,39.25
2024-01-09T06:52:22.207Z,30.88
2024-01-09T06:54:49.169Z,28.45
2024-01-09T06:57:16.269Z,24.45
2024-01-09T06:59:47.495Z,28.65
2024-01-09T07:02:14.708Z,25.63
2024-01-09T07:04:41.831Z,27.27
2024-01-09T07:07:11.320Z,30.50
2024-01-09T07:09:40.145Z,52.67
2024-01-09T07:12:09.561Z,27.30
2024-01-09T07:14:38.068Z,31.52
2024-01-09T07:17:05.265Z,40.78
2024-01-09T07:19:32.543Z,39.05
2024-01-09T07:21:59.672Z,34.35
2024-01-09T07:24:26.739Z,33.60
2024-01-09T07:26:53.893Z,29.85
2024-01-09T07:29:21.098Z,33.15
2024-01-09T07:31:49.148Z,31.75
2024-01-09T07:34:16.431Z,34.80
2024-01-09T07:36:44.275Z,31.00
2024-01-09T07:39:11.377Z,30.52
2024-01-09T07:41:38.826Z,31.27
2024-01-09T07:44:05.998Z,34.35
2024-01-09T07:46:33.226Z,33.53
2024-01-09T07:49:00.444Z,29.23
2024-01-09T07:51:27.932Z,38.53
2024-01-09T07:53:55.004Z,39.75
2024-01-09T07:56:23.231Z,47.58
2024-01-09T07:58:50.323Z,33.72
2024-01-09T08:01:18.082Z,42.72
2024-01-09T08:03:45.214Z,41.30
2024-01-09T08:06:13.330Z,39.28
2024-01-09T08:08:40.586Z,42.50
2024-01-09T08:11:07.645Z,40.42
2024-01-09T08:13:35.222Z,36.80
2024-01-09T08:16:02.298Z,34.90
2024-01-09T08:18:29.617Z,35.05
2024-01-09T08:20:57.443Z,36.80
2024-01-09T08:23:25.579Z,36.05
2024-01-09T08:25:52.620Z,34.22
2024-01-09T08:28:19.645Z,37.03
2024-01-09T08:30:46.866Z,32.08
2024-01-09T08:33:14.239Z,37.83
2024-01-09T08:35:41.416Z,32.00
2024-01-09T08:38:08.587Z,35.22
2024-01-09T08:40:36.860Z,32.28
2024-01-09T08:43:04.941Z,31.38
2024-01-09T08:45:31.960Z,40.22
2024-01-09T08:48:00.134Z,41.13
2024-01-09T08:50:27.306Z,36.45
2024-01-09T08:52:55.792Z,37.50
2024-01-09T08:55:22.905Z,39.65
2024-01-09T08:57:50.398Z,38.50
2024-01-09T09:00:17.916Z,50.75
2024-01-09T09:02:45.012Z,41.10
2024-01-09T09:05:12.686Z,40.47
2024-01-09T09:07:40.095Z,37.03
2024-01-09T09:10:07.809Z,38.25
2024-01-09T09:12:34.789Z,39.65
2024-01-09T09:15:04.295Z,39.97
2024-01-09T09:17:32.440Z,41.00
2024-01-09T09:19:59.622Z,42.35
2024-01-09T09:22:27.226Z,51.47
2024-01-09T09:24:54.388Z,45.28
2024-01-09T09:27:21.377Z,45.63
2024-01-09T09:29:48.531Z,48.25
2024-01-09T09:32:15.563Z,49.13
2024-01-09T09:34:45.286Z,52.00
2024-01-09T09:37:14.005Z,53.28
2024-01-09T09:39:41.049Z,46.42
2024-01-09T09:42:09.086Z,53.22
2024-01-09T09:44:38.092Z,47.58
2024-01-09T09:47:06.698Z,53.47
2024-01-09T09:49:36.351Z,56.53
2024-01-09T09:52:03.603Z,50.95
2024-01-09T09:54:30.697Z,48.88
2024-01-09T09:56:57.840Z,41.17
2024-01-09T09:59:24.849Z,52.72
2024-01-09T10:01:52.380Z,52.20
2024-01-09T10:04:29.064Z,55.97
2024-01-09T10:06:57.639Z,51.47
2024-01-09T10:09:28.763Z,57.63
2024-01-09T10:14:22.939Z,54.35
2024-01-09T10:16:53.817Z,60.28
2024-01-09T10:19:21.231Z,57.42
2024-01-09T10:21:48.298Z,55.80
2024-01-09T10:24:15.791Z,72.22
2024-01-09T10:26:44.194Z,60.13
2024-01-09T10:29:11.666Z,54.13
2024-01-09T10:31:40.295Z,62.28
2024-01-09T10:34:07.435Z,67.25
2024-01-09T10:36:35.649Z,65.65
2024-01-09T10:39:06.388Z,62.78
2024-01-09T10:41:34.188Z,60.40
2024-01-09T10:44:01.393Z,51.38
2024-01-09T10:46:31.133Z,58.90
2024-01-09T10:48:59.210Z,53.28
2024-01-09T10:51:26.338Z,51.58
2024-01-09T10:53:54.144Z,49.55
2024-01-09T10:56:23.064Z,46.83
2024-01-09T10:58:50.693Z,56.30
2024-01-09T11:01:18.074Z,67.22
2024-01-09T11:03:45.915Z,122.25
2024-01-09T11:06:15.962Z,56.47
2024-01-09T11:08:44.732Z,72.30
2024-01-09T11:11:13.772Z,59.67
2024-01-09T11:13:43.435Z,50.95
2024-01-09T11:16:11.342Z,65.80
2024-01-09T11:18:38.777Z,61.55
2024-01-09T11:21:05.991Z,66.30
2024-01-09T11:23:45.542Z,55.13
2024-01-09T11:26:16.006Z,58.97
2024-01-09T11:28:47.339Z,64.53
2024-01-09T11:31:18.476Z,75.82
2024-01-09T11:33:48.213Z,64.43
2024-01-09T11:36:21.827Z,70.15
2024-01-09T11:38:50.150Z,66.85
2024-01-09T11:41:18.835Z,71.38
2024-01-09T11:44:04.669Z,79.78
2024-01-09T11:46:33.176Z,72.60
2024-01-09T11:49:02.018Z,71.55
2024-01-09T11:51:32.665Z,69.63
2024-01-09T11:54:00.393Z,76.13
2024-01-09T11:56:28.204Z,78.55
2024-01-09T11:58:55.971Z,76.93
2024-01-09T12:01:23.514Z,64.43
2024-01-09T12:03:54.989Z,61.95
2024-01-09T12:06:24.424Z,61.58
2024-01-09T12:08:52.341Z,64.05
2024-01-09T12:11:19.561Z,73.63
2024-01-09T12:13:46.983Z,66.32
2024-01-09T12:16:17.109Z,63.22
2024-01-09T12:18:48.135Z,65.40
2024-01-09T12:23:56.235Z,65.40
2024-01-09T12:26:29.759Z,75.38
2024-01-09T12:28:56.869Z,66.05
2024-01-09T12:31:24.827Z,73.93
2024-01-09T12:33:53.086Z,57.33
2024-01-09T12:36:20.503Z,69.22
2024-01-09T12:38:47.717Z,71.07
2024-01-09T12:41:20.674Z,72.90
2024-01-09T12:43:47.939Z,74.43
2024-01-09T12:46:15.165Z,75.80
2024-01-09T12:48:44.118Z,71.78
2024-01-09T12:51:11.411Z,68.68
2024-01-09T12:53:39.960Z,60.47
2024-01-09T12:56:08.209Z,71.30
2024-01-09T12:58:36.502Z,65.70
2024-01-09T13:01:06.813Z,53.42
2024-01-09T13:03:34.748Z,44.10
2024-01-09T13:06:05.668Z,69.55
2024-01-09T13:08:36.187Z,80.60
2024-01-09T13:11:06.680Z,67.90
2024-01-09T13:13:34.366Z,67.10
2024-01-09T13:16:04.417Z,54.88
2024-01-09T13:18:31.616Z,62.93
2024-01-09T13:20:58.755Z,61.72
2024-01-09T13:23:48.226Z,64.35
2024-01-09T13:26:14.102Z,61.58
2024-01-09T13:30:42.969Z,78.30
2024-01-09T13:31:28.993Z,49.60
2024-01-09T13:33:56.256Z,49.35
2024-01-09T13:36:23.534Z,55.80
2024-01-09T13:38:50.746Z,57.15
2024-01-09T13:41:18.339Z,60.10
2024-01-09T13:43:45.381Z,57.65
2024-01-09T13:46:12.898Z,46.60
2024-01-09T13:48:42.063Z,57.13
2024-01-09T13:53:39.532Z,60.80
2024-01-09T13:56:07.186Z,66.47
2024-01-09T13:58:35.320Z,63.13
2024-01-09T14:01:02.402Z,60.83
2024-01-09T14:03:30.330Z,75.50
2024-01-09T14:05:58.929Z,69.85
2024-01-09T14:08:26.376Z,71.82
2024-01-09T14:10:54.219Z,64.75
2024-01-09T14:13:21.334Z,69.35
2024-01-09T14:15:48.533Z,78.03
2024-01-09T14:18:15.729Z,71.82
2024-01-09T14:20:42.908Z,61.25
2024-01-09T14:23:10.026Z,59.22
2024-01-09T14:25:39.492Z,56.20
2024-01-09T14:30:35.222Z,60.47
2024-01-09T14:33:02.633Z,57.00
2024-01-09T14:35:29.873Z,56.47
2024-01-09T14:37:56.913Z,51.85
2024-01-09T14:40:30.115Z,50.05
2024-01-09T14:42:58.164Z,82.22
2024-01-09T14:45:25.367Z,48.25
2024-01-09T14:47:52.482Z,57.17
2024-01-09T14:50:19.718Z,70.63
2024-01-09T14:52:46.766Z,50.95
2024-01-09T14:55:13.866Z,59.22
2024-01-09T14:57:41.418Z,79.72
2024-01-09T15:00:08.785Z,65.65
2024-01-09T15:02:35.910Z,74.30
2024-01-09T15:05:03.320Z,81.95
2024-01-09T15:07:30.694Z,75.45
2024-01-09T15:09:57.927Z,61.40
2024-01-09T15:12:29.015Z,56.80
2024-01-09T15:14:58.721Z,67.88
2024-01-09T15:17:26.107Z,64.53
2024-01-09T15:19:53.111Z,62.95
2024-01-09T15:22:20.249Z,66.88
2024-01-09T15:24:48.130Z,85.18
2024-01-09T15:27:15.156Z,74.30
2024-01-09T15:29:42.859Z,62.80
2024-01-09T15:32:10.172Z,56.50
2024-01-09T15:34:37.267Z,54.28
2024-01-09T15:37:04.502Z,71.45
2024-01-09T15:39:32.035Z,65.60
2024-01-09T15:41:59.538Z,64.13
2024-01-09T15:44:26.837Z,79.72
2024-01-09T15:46:55.220Z,71.68
2024-01-09T15:49:22.837Z,59.85
2024-01-09T15:51:50.148Z,60.45
2024-01-09T15:54:17.234Z,69.15
2024-01-09T15:56:44.494Z,56.45
2024-01-09T15:59:11.781Z,64.18
2024-01-09T16:01:39.095Z,75.55
2024-01-09T16:04:07.698Z,120.93
2024-01-09T16:06:35.660Z,90.95
2024-01-09T16:09:03.003Z,64.43
2024-01-09T16:11:29.992Z,72.07
2024-01-09T16:13:57.012Z,77.30
2024-01-09T16:16:24.825Z,80.35
2024-01-09T16:18:52.298Z,63.25
2024-01-09T16:21:19.520Z,57.20
2024-01-09T16:23:48.205Z,67.32
2024-01-09T16:26:15.916Z,71.82
2024-01-09T16:28:43.804Z,80.47
2024-01-09T16:31:12.259Z,81.70
2024-01-09T16:33:40.634Z,65.13
2024-01-09T16:36:08.554Z,65.55
2024-01-09T16:38:35.663Z,84.97
2024-01-09T16:41:05.685Z,84.97
2024-01-09T16:43:33.146Z,78.20
2024-01-09T16:46:00.406Z,76.38
2024-01-09T16:48:34.783Z,102.93
2024-01-09T16:51:06.513Z,69.75
2024-01-09T16:53:34.000Z,96.88
2024-01-09T16:56:03.801Z,65.60
2024-01-09T16:58:32.360Z,57.30
2024-01-09T17:01:00.259Z,61.20
2024-01-09T17:03:30.686Z,48.28
2024-01-09T17:05:58.404Z,43.35
2024-01-09T17:08:27.964Z,78.57
2024-01-09T17:10:58.137Z,141.65
2024-01-09T17:13:26.471Z,49.17
2024-01-09T17:15:53.625Z,80.15
2024-01-09T17:18:24.041Z,46.08
2024-01-09T17:20:51.210Z,54.38
2024-01-09T17:23:18.296Z,61.50
2024-01-09T17:25:46.575Z,51.10
2024-01-09T17:28:13.589Z,119.32
2024-01-09T17:30:40.735Z,83.95
2024-01-09T17:33:07.872Z,70.80
2024-01-09T17:35:35.083Z,107.53
2024-01-09T17:38:02.613Z,57.85
2024-01-09T17:40:29.590Z,67.38
2024-01-09T17:42:57.279Z,71.60
2024-01-09T17:45:24.209Z,81.13
2024-01-09T17:47:51.636Z,109.10
2024-01-09T17:50:21.306Z,87.15
2024-01-09T17:52:48.601Z,91.88
2024-01-09T17:55:15.943Z,103.55
2024-01-09T17:57:43.566Z,246.52
2024-01-09T18:00:10.863Z,160.48
2024-01-09T18:02:39.921Z,55.03
2024-01-09T18:05:08.034Z,66.47
2024-01-09T18:07:35.297Z,63.60
2024-01-09T18:10:02.412Z,51.90
2024-01-09T18:12:31.002Z,61.10
2024-01-09T18:14:59.334Z,50.78
2024-01-09T18:17:32.214Z,61.17
2024-01-09T18:19:59.809Z,123.32
2024-01-09T18:22:26.964Z,67.78
2024-01-09T18:24:54.481Z,62.88
2024-01-09T18:27:21.480Z,58.03
2024-01-09T18:29:49.473Z,56.63
2024-01-09T18:32:21.542Z,56.95
2024-01-09T18:34:49.218Z,59.63
2024-01-09T18:37:16.234Z,55.47
2024-01-09T18:39:45.101Z,54.45
2024-01-09T18:42:12.111Z,50.10
2024-01-09T18:44:41.088Z,57.67
2024-01-09T18:47:08.283Z,48.00
2024-01-09T18:49:37.160Z,54.65
2024-01-09T18:52:06.621Z,58.60
2024-01-09T18:54:33.779Z,58.55
2024-01-09T18:57:01.318Z,61.45
2024-01-09T18:59:28.587Z,49.17
2024-01-09T19:01:58.296Z,42.40
2024-01-09T19:04:25.597Z,47.05
2024-01-09T19:06:53.160Z,50.70
2024-01-09T19:09:23.757Z,49.75
2024-01-09T19:11:51.097Z,48.42
2024-01-09T19:14:21.809Z,55.17
2024-01-09T19:16:48.987Z,46.80
2024-01-09T19:19:17.379Z,52.90
2024-01-09T19:21:49.174Z,62.95
2024-01-09T19:29:19.773Z,52.92
2024-01-09T19:31:48.401Z,43.15
2024-01-09T19:34:15.517Z,41.42
2024-01-09T19:36:47.088Z,49.42
2024-01-09T19:39:14.318Z,55.85
2024-01-09T19:41:42.022Z,43.75
2024-01-09T19:44:09.209Z,54.28
2024-01-09T19:46:39.721Z,43.05
2024-01-09T19:49:06.861Z,52.90
2024-01-09T19:51:34.096Z,39.70
2024-01-09T19:54:01.146Z,49.75
2024-01-09T19:56:34.021Z,51.85
2024-01-09T19:59:01.582Z,55.90
2024-01-09T20:01:28.723Z,69.60
2024-01-09T20:03:55.978Z,60.22
2024-01-09T20:06:25.632Z,54.38
2024-01-09T20:08:53.209Z,49.40
2024-01-09T20:11:28.503Z,38.58
2024-01-09T20:13:57.992Z,35.58
2024-01-09T20:16:26.423Z,41.45
2024-01-09T20:18:53.782Z,37.53
2024-01-09T20:21:31.273Z,39.38
2024-01-09T20:23:58.644Z,40.05
2024-01-09T20:26:29.204Z,30.05
2024-01-09T20:28:56.815Z,38.00
2024-01-09T20:31:24.424Z,44.83
2024-01-09T20:33:52.452Z,36.33
2024-01-09T20:36:20.144Z,36.50
2024-01-09T20:38:47.618Z,41.65
2024-01-09T20:41:14.751Z,47.47
2024-01-09T20:43:41.962Z,39.13
2024-01-09T20:46:09.206Z,41.38
2024-01-09T20:48:36.495Z,40.85
2024-01-09T20:51:08.147Z,46.38
2024-01-09T20:53:36.259Z,37.47
2024-01-09T20:56:03.970Z,65.00
2024-01-09T20:58:32.319Z,46.88
2024-01-09T21:01:00.681Z,36.97
2024-01-09T21:03:29.544Z,30.15
2024-01-09T21:05:56.880Z,33.25
2024-01-09T21:08:24.372Z,88.45
2024-01-09T21:10:52.754Z,38.08
2024-01-09T21:13:20.499Z,40.70
2024-01-09T21:15:47.602Z,88.03
2024-01-09T21:18:14.930Z,44.95
2024-01-09T21:20:42.562Z,45.65
2024-01-09T21:23:10.003Z,47.00
2024-01-09T21:25:37.729Z,63.30
2024-01-09T21:28:05.173Z,47.72
2024-01-09T21:30:32.718Z,71.72
2024-01-09T21:32:59.773Z,48.60
2024-01-09T21:35:26.947Z,195.93
2024-01-09T21:37:54.363Z,45.25
2024-01-09T21:40:21.780Z,105.55
2024-01-09T21:42:51.614Z,43.42
2024-01-09T21:45:18.770Z,44.08
2024-01-09T21:47:46.112Z,124.32
2024-01-09T21:50:13.360Z,46.85
2024-01-09T21:52:40.801Z,30.65
2024-01-09T21:55:08.531Z,40.72
2024-01-09T21:57:35.570Z,48.92
2024-01-09T22:00:02.760Z,38.53
2024-01-09T22:02:38.703Z,31.35
2024-01-09T22:05:06.011Z,35.78
2024-01-09T22:07:33.205Z,49.22
2024-01-09T22:10:00.280Z,44.15
2024-01-09T22:12:27.290Z,45.78
2024-01-09T22:14:54.394Z,33.58
2024-01-09T22:17:21.390Z,41.28
2024-01-09T22:19:48.448Z,37.40
2024-01-09T22:22:15.433Z,32.88
2024-01-09T22:24:44.095Z,34.78
2024-01-09T22:27:11.098Z,42.95
2024-01-09T22:29:38.246Z,67.22
2024-01-09T22:32:06.010Z,47.70
2024-01-09T22:34:33.341Z,39.72
2024-01-09T22:37:00.473Z,36.03
2024-01-09T22:39:27.706Z,35.08
2024-01-09T22:41:55.225Z,40.83
2024-01-09T22:44:22.336Z,40.90
2024-01-09T22:46:49.423Z,36.10
2024-01-09T22:49:16.747Z,30.92
2024-01-09T22:51:43.930Z,40.13
2024-01-09T22:54:11.675Z,32.75
2024-01-09T22:56:43.210Z,30.10
2024-01-09T22:59:11.731Z,37.92
2024-01-09T23:01:39.024Z,37.83
2024-01-09T23:04:06.471Z,30.60
2024-01-09T23:06:33.530Z,35.10
2024-01-09T23:09:00.695Z,39.55
2024-01-09T23:11:27.827Z,32.15
2024-01-09T23:13:54.974Z,34.97
2024-01-09T23:16:22.780Z,36.22
2024-01-09T23:18:49.916Z,30.90
2024-01-09T23:21:21.650Z,35.05
2024-01-09T23:23:49.164Z,32.30
2024-01-09T23:26:16.700Z,26.00
2024-01-09T23:28:43.799Z,24.63
2024-01-09T23:31:11.399Z,27.60
2024-01-09T23:33:38.622Z,25.35
2024-01-09T23:36:07.404Z,29.42
2024-01-09T23:38:34.518Z,32.95
2024-01-09T23:41:01.911Z,30.55
2024-01-09T23:43:28.962Z,29.92
2024-01-09T23:45:57.057Z,25.73
2024-01-09T23:48:24.206Z,28.55
2024-01-09T23:50:51.320Z,38.40
2024-01-09T23:53:20.177Z,40.95
2024-01-09T23:55:47.218Z,29.20
2024-01-09T23:58:14.499Z,28.83
